Hampton, VA (23668)

7:00 AM EDT on September 05, 2015 (GMT -0400)
East Hampton | | Change Station
CLOSE
Current Station
Personal Weather Station
Location: Hampton, VA
Elevation: 0 ft
Nearby Weather Stations

Elev 0 ft 37.03 °N, 76.34 °W | Updated 39 seconds ago

Mostly Cloudy
Mostly Cloudy
75.7 °F
Feels Like 74 °F
N
0.0
Wind Variable Wind from East
Gusts 0.0 mph

Today
High -- | Low -- °F
--% Chance of Precip.
Yesterday
High -- | Low -- °F
Precip. -- in
6:39 AM 7:28 PM
Waning Gibbous, 50% visible
Pressure 30.12 in
Visibility 5.0 miles
Clouds Few 700 ft
Mostly Cloudy 1300 ft
Mostly Cloudy 2100 ft
Mostly Cloudy 3100 ft
Heat Index 74 °F
Dew Point 75 °F
Humidity 98%
Rainfall 0.46 in
Snow Depth Not available.
UV 0.0 out of 12
Pollen 9.60 out of 12
Air Quality Not available.
Flu Activity Not available.
METAR KLFI 051058Z AUTO 04016KT 5SM -RA BR FEW007 BKN013 BKN021 BKN031 24/23 A3010 RMK AO2 RAB27 SLP199 P0051 T02400231
Pressure 30.12 in
Visibility 5.0 miles
Clouds Few 700 ft
Mostly Cloudy 1300 ft
Mostly Cloudy 2100 ft
Mostly Cloudy 3100 ft
Heat Index 74 °F
Dew Point 75 °F
Humidity 98%
Rainfall 0.46 in
Snow Depth Not available.
UV 0.0 out of 12
Pollen 9.60 out of 12
Air Quality Not available.
Flu Activity Not available.
METAR KLFI 051058Z AUTO 04016KT 5SM -RA BR FEW007 BKN013 BKN021 BKN031 24/23 A3010 RMK AO2 RAB27 SLP199 P0051 T02400231

10-Day Weather Forecast

×

Almanac

Astronomy

Sep. 05, 2015 Rise Set
Actual Time
Civil Twilight
Nautical Twilight
Astronomical Twilight
Moon
Length of Visible Light
Length of Day
Tomorrow will be .
, % of the Moon is Illuminated

Today's Extremes

State Highs State Lows

Community

WunderPhotos

Upload Photos

1,852,445 photos uploaded!

WunderBlogs® & News

Nearby

Air Quality

  Air Quality AQ Index Pollutant
Not available.

Snow Depth

Station Depth Elevation

Earthquake Activity

City Distance Mag. Time & Date
Minimum magnitude displayed is 2.5.

Coastal Water Temperatures

Place Temperature

Stations

Nearby Weather Stations

Station Location Temp. Windchill Dew Point Humidity Wind Precip. Elev Updated Type